Terminal Aerodrome Forecast
Issued by NWS

Home | Current Version | Previous Version | Text Only | Print | Product List | Glossary On
Versions: 1 2 3 4 5 6 7 8 9 10 11 12 13 14 15 16 17 18 19 20 21 22 23 24 25 26
000
FTUS46 KLOX 050853 AAA
TAFLAX
TAF AMD
KLAX 050853Z 0509/0612 VRB03KT P6SM SKC
     FM051000 VRB03KT P6SM OVC020
     FM051600 26006KT P6SM BKN030
     FM051900 26012KT P6SM SKC
     FM060500 VRB03KT P6SM SKC
     FM061100 VRB03KT P6SM BKN010=

USA.gov is the U.S. government's official web portal to all federal, state and local government web resources and services.